Time;durP1;ratioP1;P1;durP2;ratioP2;P2;SDS_P1;SDS_P2;PMS_P1;PMS_P2;Temp;Humidity;BMP_temperature;BMP_pressure;BME280_temperature;BME280_humidity;BME280_pressure;Samples;Min_cycle;Max_cycle;Signal;HPM_P1;HPM_P2
2024/03/13 00:00:29;;;;;;;1.73;1.33;;;19.30;56.80;;;;;;5046266;28;20074;-52
2024/03/13 00:02:55;;;;;;;1.40;1.20;;;19.40;56.90;;;;;;5051686;28;20051;-51
2024/03/13 00:05:20;;;;;;;1.17;1.08;;;19.40;56.90;;;;;;5047186;28;20024;-50
2024/03/13 00:07:46;;;;;;;1.13;1.00;;;19.30;56.80;;;;;;5048938;28;20169;-49
2024/03/13 00:10:11;;;;;;;1.20;1.00;;;19.40;56.90;;;;;;5041244;28;20029;-50
2024/03/13 00:12:37;;;;;;;1.10;1.00;;;19.30;56.80;;;;;;5047648;28;20016;-50
2024/03/13 00:15:05;;;;;;;1.58;1.13;;;19.30;56.80;;;;;;5045110;28;20033;-50
2024/03/13 00:17:30;;;;;;;1.80;1.30;;;19.30;56.80;;;;;;5040082;28;20034;-50
2024/03/13 00:19:56;;;;;;;1.20;1.00;;;19.40;56.90;;;;;;5040703;28;20052;-51
2024/03/13 00:22:23;;;;;;;1.40;1.30;;;19.40;56.90;;;;;;5049749;28;20095;-49
2024/03/13 00:24:50;;;;;;;1.90;1.52;;;19.30;56.80;;;;;;5043369;28;20043;-50
2024/03/13 00:27:16;;;;;;;1.45;1.20;;;19.40;56.90;;;;;;5051212;28;20075;-51
2024/03/13 00:29:45;;;;;;;1.58;1.30;;;19.40;56.90;;;;;;5047030;28;20054;-50
2024/03/13 00:32:12;;;;;;;1.35;1.25;;;19.30;56.80;;;;;;5033361;28;20024;-58
2024/03/13 00:34:38;;;;;;;1.30;1.00;;;19.30;56.80;;;;;;5049373;28;20041;-52
2024/03/13 00:37:04;;;;;;;1.40;1.15;;;19.30;56.80;;;;;;5037771;28;20063;-51
2024/03/13 00:39:29;;;;;;;1.10;1.00;;;19.40;57.00;;;;;;5055814;28;20055;-50
2024/03/13 00:41:55;;;;;;;1.23;1.13;;;19.30;56.80;;;;;;5049115;28;20024;-51
2024/03/13 00:44:25;;;;;;;1.33;1.20;;;19.40;56.90;;;;;;5052306;28;20039;-50
2024/03/13 00:46:50;;;;;;;1.27;1.15;;;19.30;56.90;;;;;;5046083;28;20025;-52
2024/03/13 00:49:16;;;;;;;0.90;0.77;;;19.30;56.80;;;;;;5046020;28;20405;-48
2024/03/13 00:51:44;;;;;;;1.30;1.20;;;19.30;56.80;;;;;;5045486;28;20048;-53
2024/03/13 00:54:11;;;;;;;1.63;1.30;;;19.30;56.80;;;;;;5052543;28;20489;-51
2024/03/13 00:56:36;;;;;;;1.50;1.30;;;19.30;56.80;;;;;;5048182;28;20043;-51
2024/03/13 00:59:05;;;;;;;3.22;1.13;;;19.30;56.80;;;;;;5051424;28;20032;-50
2024/03/13 01:01:30;;;;;;;1.95;1.35;;;19.30;56.80;;;;;;5047465;28;20124;-49
2024/03/13 01:03:59;;;;;;;1.23;1.13;;;19.30;56.80;;;;;;5046218;28;20184;-49
2024/03/13 01:06:28;;;;;;;1.10;1.00;;;19.30;56.90;;;;;;5044648;28;20770;-48
2024/03/13 01:08:57;;;;;;;1.30;1.20;;;19.30;56.90;;;;;;5055678;28;20035;-49
2024/03/13 01:11:24;;;;;;;1.75;1.45;;;19.30;57.00;;;;;;5049846;28;20513;-49
2024/03/13 01:13:50;;;;;;;1.52;1.20;;;19.20;57.00;;;;;;5047569;28;20048;-53
2024/03/13 01:16:16;;;;;;;1.25;1.15;;;19.20;57.10;;;;;;5045997;28;20033;-51
2024/03/13 01:18:42;;;;;;;1.65;1.10;;;19.20;57.20;;;;;;5050192;28;20060;-52
2024/03/13 01:21:09;;;;;;;1.20;1.08;;;19.20;57.30;;;;;;5039249;28;20052;-52
2024/03/13 01:23:37;;;;;;;1.45;1.23;;;19.10;57.30;;;;;;5017250;28;20159;-49
2024/03/13 01:26:05;;;;;;;1.27;1.17;;;19.10;57.40;;;;;;5049666;28;20107;-51
2024/03/13 01:28:31;;;;;;;1.90;1.40;;;19.10;57.40;;;;;;5047654;28;20512;-51
2024/03/13 01:30:56;;;;;;;1.73;1.33;;;19.10;57.50;;;;;;5047504;28;20045;-49
2024/03/13 01:33:22;;;;;;;1.25;1.15;;;19.00;57.50;;;;;;5049167;28;20668;-50
2024/03/13 01:35:47;;;;;;;1.50;1.25;;;19.00;57.50;;;;;;5049758;28;20643;-52
2024/03/13 01:38:13;;;;;;;1.38;1.20;;;19.00;57.50;;;;;;5056500;28;20048;-50
2024/03/13 01:54:52;;;;;;;1.65;1.35;;;19.00;57.50;;;;;;5052960;28;20066;-51
2024/03/13 01:57:28;;;;;;;1.48;1.20;;;19.00;57.40;;;;;;5053226;28;20644;-50
2024/03/13 02:02:43;;;;;;;1.25;1.15;;;19.10;57.40;;;;;;5037692;28;20040;-50
2024/03/13 02:05:09;;;;;;;1.35;1.25;;;19.10;57.40;;;;;;5052240;28;20020;-51
2024/03/13 02:07:35;;;;;;;1.50;1.23;;;19.10;57.40;;;;;;5051470;28;20107;-50
2024/03/13 02:10:04;;;;;;;1.63;1.35;;;19.10;57.30;;;;;;5051731;28;20029;-51
2024/03/13 02:12:29;;;;;;;1.65;1.55;;;19.10;57.30;;;;;;5050787;28;20062;-51
2024/03/13 02:14:55;;;;;;;1.48;1.38;;;19.10;57.30;;;;;;5049145;28;20067;-51
2024/03/13 02:17:21;;;;;;;1.63;1.33;;;19.10;57.30;;;;;;5051163;28;20040;-50
2024/03/13 02:19:47;;;;;;;1.58;1.30;;;19.10;57.30;;;;;;5047581;28;20021;-58
2024/03/13 02:22:14;;;;;;;1.40;1.30;;;19.10;57.30;;;;;;5052045;28;20528;-50
2024/03/13 02:24:40;;;;;;;1.42;1.20;;;19.10;57.20;;;;;;5031701;28;20353;-51
2024/03/13 02:27:12;;;;;;;1.50;1.33;;;19.10;57.20;;;;;;5048841;28;20028;-51
2024/03/13 02:29:40;;;;;;;1.42;1.30;;;19.10;57.20;;;;;;5051027;28;20512;-51
2024/03/13 02:32:06;;;;;;;1.27;1.13;;;19.10;57.20;;;;;;5052750;28;20035;-51
2024/03/13 02:34:32;;;;;;;1.40;1.30;;;19.10;57.10;;;;;;5047634;28;20831;-51
2024/03/13 02:36:58;;;;;;;1.45;1.35;;;19.10;57.10;;;;;;5049347;28;20041;-51
2024/03/13 02:39:24;;;;;;;1.50;1.30;;;19.10;57.10;;;;;;5050090;28;20028;-52
2024/03/13 02:41:49;;;;;;;1.50;1.38;;;19.10;57.10;;;;;;5043296;28;20032;-52
2024/03/13 02:44:15;;;;;;;1.30;1.20;;;19.20;57.10;;;;;;5049066;28;20043;-51
2024/03/13 02:46:43;;;;;;;1.30;1.20;;;19.20;57.10;;;;;;5045726;28;20147;-54
2024/03/13 02:49:09;;;;;;;1.50;1.40;;;19.10;57.10;;;;;;5050330;28;20032;-52
2024/03/13 02:51:34;;;;;;;1.27;1.17;;;19.20;57.20;;;;;;5046500;28;20043;-52
2024/03/13 02:54:00;;;;;;;1.50;1.30;;;19.10;57.10;;;;;;5046672;28;20490;-52
2024/03/13 02:56:26;;;;;;;1.48;1.30;;;19.20;57.10;;;;;;5051992;28;20035;-52
2024/03/13 02:58:52;;;;;;;2.17;1.70;;;19.20;57.10;;;;;;5048525;28;20033;-50
2024/03/13 03:01:17;;;;;;;2.08;1.60;;;19.20;57.10;;;;;;5045003;28;20131;-52
2024/03/13 03:03:43;;;;;;;1.52;1.42;;;19.20;57.10;;;;;;5028963;28;20734;-53
2024/03/13 03:06:09;;;;;;;1.35;1.25;;;19.20;57.10;;;;;;5043760;28;20037;-52
2024/03/13 03:08:37;;;;;;;1.45;1.35;;;19.20;57.10;;;;;;5027552;28;20029;-51
2024/03/13 03:11:03;;;;;;;1.50;1.40;;;19.20;57.10;;;;;;5049670;28;20033;-52
2024/03/13 03:13:34;;;;;;;1.60;1.50;;;19.20;57.10;;;;;;5049673;28;20040;-51
2024/03/13 03:16:00;;;;;;;1.20;1.10;;;19.20;57.10;;;;;;5044584;28;20434;-51
2024/03/13 03:18:26;;;;;;;1.48;1.38;;;19.20;57.20;;;;;;5046615;28;20032;-51
2024/03/13 03:20:52;;;;;;;1.70;1.48;;;19.10;57.10;;;;;;5032295;28;20037;-51
2024/03/13 03:23:18;;;;;;;1.83;1.60;;;19.10;57.20;;;;;;5045375;28;20035;-52
2024/03/13 03:25:44;;;;;;;1.77;1.45;;;19.10;57.20;;;;;;5044584;28;20059;-52
2024/03/13 03:28:13;;;;;;;1.70;1.30;;;19.10;57.20;;;;;;5043982;28;20743;-50
2024/03/13 03:30:41;;;;;;;1.20;1.10;;;19.10;57.30;;;;;;5044391;28;20029;-52
2024/03/13 03:33:07;;;;;;;1.80;1.30;;;19.10;57.30;;;;;;5045404;28;20041;-49
2024/03/13 03:35:34;;;;;;;1.50;1.40;;;19.10;57.30;;;;;;5038214;28;20037;-51
2024/03/13 03:38:04;;;;;;;1.45;1.35;;;19.10;57.30;;;;;;5042964;28;20032;-50
2024/03/13 03:40:30;;;;;;;1.67;1.50;;;19.00;57.30;;;;;;5049175;28;20169;-50
2024/03/13 03:42:58;;;;;;;1.27;1.17;;;19.00;57.30;;;;;;5050588;28;20116;-52
2024/03/13 03:45:28;;;;;;;1.83;1.42;;;19.00;57.30;;;;;;5051023;28;20025;-53
2024/03/13 03:47:54;;;;;;;1.30;1.20;;;19.00;57.40;;;;;;5045371;28;20048;-52
2024/03/13 03:50:20;;;;;;;1.40;1.30;;;19.00;57.30;;;;;;5050650;28;20029;-51
2024/03/13 03:52:47;;;;;;;1.42;1.33;;;19.00;57.40;;;;;;5033936;28;20048;-52
2024/03/13 03:55:13;;;;;;;1.60;1.50;;;19.00;57.50;;;;;;5048918;28;20741;-50
2024/03/13 03:57:40;;;;;;;1.70;1.60;;;19.00;57.50;;;;;;5046700;28;20163;-52
2024/03/13 04:00:09;;;;;;;2.60;1.70;;;19.00;57.40;;;;;;5050068;28;20029;-52
2024/03/13 04:02:35;;;;;;;1.48;1.25;;;19.00;57.50;;;;;;5048508;28;20040;-49
2024/03/13 04:05:00;;;;;;;1.58;1.48;;;19.00;57.50;;;;;;5044559;28;20033;-52
2024/03/13 04:07:26;;;;;;;1.48;1.38;;;19.00;57.50;;;;;;5040976;28;20029;-52
2024/03/13 04:09:52;;;;;;;1.48;1.38;;;19.00;57.50;;;;;;5046979;28;20088;-50
2024/03/13 04:12:17;;;;;;;1.60;1.35;;;19.00;57.50;;;;;;5040108;28;20037;-52
2024/03/13 04:14:44;;;;;;;1.35;1.15;;;19.00;57.50;;;;;;5046135;28;20044;-51
2024/03/13 04:17:09;;;;;;;1.42;1.33;;;19.00;57.50;;;;;;5048310;28;20037;-52
2024/03/13 04:19:35;;;;;;;2.03;1.50;;;19.00;57.50;;;;;;5046291;28;20028;-50
2024/03/13 04:22:00;;;;;;;1.52;1.20;;;18.90;57.40;;;;;;5046644;28;20178;-50
2024/03/13 04:24:26;;;;;;;1.73;1.33;;;18.90;57.50;;;;;;5043298;28;20057;-50
2024/03/13 04:26:51;;;;;;;1.65;1.50;;;18.90;57.50;;;;;;5042946;28;20525;-50
2024/03/13 04:29:17;;;;;;;2.13;1.60;;;18.90;57.50;;;;;;5045362;28;20060;-51
2024/03/13 04:31:42;;;;;;;1.38;1.27;;;18.90;57.50;;;;;;5046653;28;21035;-48
2024/03/13 04:34:08;;;;;;;1.90;1.70;;;18.90;57.50;;;;;;5046249;28;20044;-51
2024/03/13 04:36:40;;;;;;;1.58;1.48;;;18.90;57.40;;;;;;5039336;28;20090;-51
2024/03/13 04:39:06;;;;;;;1.77;1.58;;;18.90;57.50;;;;;;5048697;28;20029;-48
2024/03/13 04:41:33;;;;;;;1.55;1.42;;;19.00;57.50;;;;;;5044426;28;20045;-51
2024/03/13 04:44:00;;;;;;;1.55;1.30;;;18.90;57.40;;;;;;5050610;28;20037;-51
2024/03/13 04:46:26;;;;;;;1.90;1.70;;;18.90;57.40;;;;;;5042829;28;20033;-51
2024/03/13 04:48:52;;;;;;;1.70;1.40;;;18.90;57.40;;;;;;5043653;28;20036;-52
2024/03/13 04:51:17;;;;;;;1.70;1.60;;;18.90;57.40;;;;;;5033765;28;20032;-49
2024/03/13 04:53:43;;;;;;;1.95;1.73;;;18.90;57.40;;;;;;5044956;28;20090;-52
2024/03/13 04:56:11;;;;;;;2.08;1.80;;;18.90;57.40;;;;;;5044282;28;20040;-51
2024/03/13 04:58:36;;;;;;;2.13;1.92;;;18.90;57.40;;;;;;5048548;28;20433;-52
2024/03/13 05:01:03;;;;;;;1.60;1.42;;;18.90;57.40;;;;;;5046777;28;20127;-52
2024/03/13 05:03:29;;;;;;;1.58;1.48;;;18.90;57.40;;;;;;5049609;28;20025;-52
2024/03/13 05:05:55;;;;;;;1.60;1.10;;;18.90;57.40;;;;;;5029213;28;20044;-52
2024/03/13 05:08:20;;;;;;;1.58;1.48;;;18.90;57.40;;;;;;5049212;28;20033;-50
2024/03/13 05:10:46;;;;;;;1.27;1.17;;;18.90;57.40;;;;;;5044467;28;20037;-51
2024/03/13 05:13:13;;;;;;;1.80;1.70;;;18.90;57.40;;;;;;5047233;28;20041;-52
2024/03/13 05:15:39;;;;;;;1.50;1.38;;;18.90;57.30;;;;;;5042460;28;20021;-50
2024/03/13 05:18:04;;;;;;;1.60;1.48;;;19.00;57.40;;;;;;5049641;28;20049;-51
2024/03/13 05:20:30;;;;;;;1.70;1.40;;;18.90;57.30;;;;;;5042342;28;20444;-50
2024/03/13 05:22:55;;;;;;;1.48;1.38;;;18.90;57.30;;;;;;5051825;28;20037;-49
2024/03/13 05:25:24;;;;;;;3.50;1.65;;;18.90;57.30;;;;;;5048326;28;20535;-51
2024/03/13 05:27:50;;;;;;;1.45;1.35;;;19.00;57.40;;;;;;5050014;28;20024;-52
2024/03/13 05:30:16;;;;;;;1.85;1.70;;;19.00;57.30;;;;;;5046325;28;20029;-51
2024/03/13 05:32:42;;;;;;;1.85;1.55;;;19.00;57.40;;;;;;5037736;28;20508;-52
2024/03/13 05:35:08;;;;;;;1.75;1.65;;;19.00;57.30;;;;;;5044193;28;20514;-50
2024/03/13 05:37:36;;;;;;;1.50;1.38;;;19.00;57.30;;;;;;4997724;28;20115;-52
2024/03/13 05:40:11;;;;;;;1.83;1.50;;;19.00;57.30;;;;;;5045542;28;20029;-51
2024/03/13 05:42:38;;;;;;;2.15;1.75;;;18.90;57.20;;;;;;5011470;28;20033;-50
2024/03/13 05:45:06;;;;;;;1.90;1.70;;;19.00;57.30;;;;;;5048066;28;20025;-56
2024/03/13 05:47:31;;;;;;;2.13;1.67;;;19.00;57.30;;;;;;5046706;28;20024;-55
2024/03/13 05:49:57;;;;;;;1.67;1.52;;;19.00;57.30;;;;;;5044876;28;20024;-49
2024/03/13 05:52:22;;;;;;;1.70;1.55;;;19.00;57.30;;;;;;5026267;28;20029;-54
2024/03/13 05:54:48;;;;;;;1.50;1.40;;;19.00;57.30;;;;;;5046768;28;20044;-52
2024/03/13 05:57:14;;;;;;;1.63;1.52;;;19.00;57.30;;;;;;5041175;28;20613;-50
2024/03/13 05:59:39;;;;;;;1.70;1.60;;;19.00;57.20;;;;;;5048784;28;20032;-55
2024/03/13 06:02:05;;;;;;;2.20;1.40;;;19.00;57.20;;;;;;5043321;28;20387;-56
2024/03/13 06:04:30;;;;;;;1.83;1.50;;;19.00;57.20;;;;;;5048261;28;20163;-47
2024/03/13 06:06:56;;;;;;;2.13;1.80;;;19.00;57.20;;;;;;5042324;28;20037;-51
2024/03/13 06:09:23;;;;;;;1.73;1.63;;;19.00;57.10;;;;;;5039257;28;20124;-53
2024/03/13 06:11:49;;;;;;;1.27;1.17;;;19.00;57.10;;;;;;5047995;28;20493;-51
2024/03/13 06:14:16;;;;;;;1.65;1.52;;;19.00;57.10;;;;;;5042468;28;20379;-49
2024/03/13 06:16:42;;;;;;;1.60;1.50;;;19.00;57.10;;;;;;5049398;28;20107;-50
2024/03/13 06:19:08;;;;;;;1.85;1.65;;;19.10;57.10;;;;;;5030908;28;20857;-55
2024/03/13 06:21:33;;;;;;;1.80;1.60;;;19.10;57.70;;;;;;5048036;28;20031;-52
2024/03/13 06:24:03;;;;;;;1.85;1.40;;;19.10;57.00;;;;;;5049540;28;20081;-53
2024/03/13 06:26:28;;;;;;;2.20;1.50;;;19.10;57.00;;;;;;5054394;28;20501;-53
2024/03/13 06:31:42;;;;;;;1.90;1.50;;;19.10;57.00;;;;;;5051094;28;20039;-54
2024/03/13 06:34:11;;;;;;;1.92;1.77;;;19.10;56.90;;;;;;5045548;28;20033;-55
2024/03/13 06:36:37;;;;;;;1.35;1.25;;;19.10;57.00;;;;;;5042819;28;20723;-54
2024/03/13 06:39:03;;;;;;;1.58;1.48;;;19.10;56.90;;;;;;5056560;28;20039;-62
2024/03/13 06:41:29;;;;;;;1.63;1.52;;;19.20;57.00;;;;;;5047791;28;20402;-52
2024/03/13 06:43:55;;;;;;;1.88;1.52;;;19.10;56.90;;;;;;5047613;28;20065;-53
2024/03/13 06:46:20;;;;;;;1.70;1.60;;;19.20;56.90;;;;;;5049441;28;20055;-51
2024/03/13 06:48:46;;;;;;;1.85;1.50;;;19.10;56.90;;;;;;5048994;28;20600;-49
2024/03/13 06:51:14;;;;;;;1.98;1.60;;;19.20;56.90;;;;;;5046564;28;20435;-50
2024/03/13 06:53:40;;;;;;;2.05;1.85;;;19.20;57.00;;;;;;5046860;28;20044;-49
2024/03/13 06:56:05;;;;;;;2.10;1.90;;;19.20;57.00;;;;;;5047115;28;20029;-50
2024/03/13 06:58:31;;;;;;;1.67;1.50;;;19.20;56.90;;;;;;5046256;28;20036;-55
2024/03/13 07:01:00;;;;;;;1.98;1.60;;;19.10;56.90;;;;;;5036390;28;20039;-53
2024/03/13 07:03:26;;;;;;;1.55;1.45;;;19.20;56.90;;;;;;5034013;28;20490;-50
2024/03/13 07:05:51;;;;;;;1.60;1.50;;;19.20;57.00;;;;;;5034145;28;20118;-51
2024/03/13 07:08:18;;;;;;;1.83;1.73;;;19.20;57.00;;;;;;5041540;28;20029;-53
2024/03/13 07:10:44;;;;;;;1.45;1.30;;;19.20;57.00;;;;;;5048771;28;20024;-51
2024/03/13 07:13:09;;;;;;;1.83;1.63;;;19.10;56.90;;;;;;5044820;28;20025;-53
2024/03/13 07:15:35;;;;;;;1.55;1.45;;;19.10;56.90;;;;;;5046908;28;20036;-56
2024/03/13 07:18:03;;;;;;;2.42;1.58;;;19.10;56.90;;;;;;5050249;28;20111;-52
2024/03/13 07:20:29;;;;;;;1.92;1.70;;;19.10;56.90;;;;;;5046986;28;21013;-51
2024/03/13 07:22:54;;;;;;;1.90;1.77;;;19.10;56.90;;;;;;5027231;28;20033;-50
2024/03/13 07:25:20;;;;;;;2.10;1.90;;;19.10;56.90;;;;;;5046319;28;20383;-50
2024/03/13 07:27:45;;;;;;;2.63;1.70;;;19.20;57.00;;;;;;5045944;28;20029;-49
2024/03/13 07:30:11;;;;;;;1.67;1.58;;;19.20;57.00;;;;;;5043522;28;20017;-53
2024/03/13 07:32:36;;;;;;;2.05;1.48;;;19.20;57.00;;;;;;5050222;28;20036;-49
2024/03/13 07:35:03;;;;;;;2.10;1.70;;;19.20;57.00;;;;;;5044085;28;20120;-51
2024/03/13 07:37:29;;;;;;;2.30;1.70;;;19.20;57.00;;;;;;5044101;28;20040;-52
2024/03/13 07:39:55;;;;;;;2.72;1.83;;;19.20;57.00;;;;;;5051756;28;20037;-51
2024/03/13 07:42:21;;;;;;;2.60;1.45;;;19.20;56.90;;;;;;5049583;28;20505;-50
2024/03/13 07:44:47;;;;;;;3.75;1.48;;;19.20;56.90;;;;;;5045761;28;20028;-51
2024/03/13 07:47:12;;;;;;;1.60;1.48;;;19.20;57.00;;;;;;5044822;28;20075;-51
2024/03/13 07:49:40;;;;;;;2.60;2.05;;;19.20;57.00;;;;;;5033732;28;20028;-49
2024/03/13 07:52:05;;;;;;;2.05;1.85;;;19.20;57.00;;;;;;5050480;28;20040;-49
2024/03/13 07:54:32;;;;;;;1.83;1.60;;;19.20;57.00;;;;;;5042133;28;20033;-52
2024/03/13 07:56:58;;;;;;;2.13;1.92;;;19.10;57.00;;;;;;5047223;28;20032;-50
2024/03/13 07:59:25;;;;;;;2.10;1.90;;;19.10;57.00;;;;;;5042676;28;20025;-52
2024/03/13 08:01:51;;;;;;;2.90;2.20;;;19.10;57.10;;;;;;5049802;28;20040;-52
2024/03/13 08:04:16;;;;;;;2.03;1.75;;;19.10;57.10;;;;;;5044250;28;20032;-50
2024/03/13 08:06:42;;;;;;;1.63;1.52;;;19.10;57.20;;;;;;5048593;28;20029;-48
2024/03/13 08:09:07;;;;;;;2.03;1.58;;;19.10;57.20;;;;;;5032555;28;20021;-51
2024/03/13 08:11:33;;;;;;;4.28;2.15;;;19.00;57.20;;;;;;5050882;28;20033;-49
2024/03/13 08:14:01;;;;;;;2.63;1.73;;;19.00;57.30;;;;;;5043376;28;20123;-52
2024/03/13 08:16:27;;;;;;;2.25;1.33;;;19.00;57.30;;;;;;5052355;28;20379;-51
2024/03/13 08:18:53;;;;;;;1.90;1.70;;;19.00;57.30;;;;;;5048255;28;20044;-56
2024/03/13 08:21:18;;;;;;;1.52;1.42;;;19.00;57.40;;;;;;5042466;28;20510;-48
2024/03/13 08:23:47;;;;;;;2.50;1.92;;;19.00;57.40;;;;;;5044679;28;20033;-51
2024/03/13 08:26:13;;;;;;;1.60;1.48;;;19.00;57.50;;;;;;5043382;28;20034;-50
2024/03/13 08:28:40;;;;;;;2.10;1.60;;;18.90;57.40;;;;;;5045513;28;20032;-54
2024/03/13 08:31:06;;;;;;;2.05;1.83;;;19.00;57.50;;;;;;5047330;28;20494;-49
2024/03/13 08:33:32;;;;;;;2.03;1.65;;;18.90;57.50;;;;;;5047900;28;20055;-50
2024/03/13 08:35:58;;;;;;;2.15;1.60;;;18.90;57.50;;;;;;5036159;28;20041;-51
2024/03/13 08:38:23;;;;;;;1.95;1.75;;;18.90;57.50;;;;;;5013385;28;20025;-51
2024/03/13 08:40:49;;;;;;;1.98;1.52;;;18.90;57.50;;;;;;5047120;28;20044;-48
2024/03/13 08:43:19;;;;;;;2.58;1.55;;;18.90;57.60;;;;;;5050819;28;20036;-60
2024/03/13 08:45:45;;;;;;;1.60;1.50;;;18.90;57.60;;;;;;5048968;28;20033;-49
2024/03/13 08:48:11;;;;;;;1.70;1.50;;;18.80;57.70;;;;;;5049641;28;20029;-51
2024/03/13 08:50:36;;;;;;;1.92;1.38;;;18.80;57.60;;;;;;5048253;28;20532;-49
2024/03/13 08:53:03;;;;;;;1.60;1.50;;;18.80;57.70;;;;;;5047136;28;20033;-53
2024/03/13 08:55:32;;;;;;;1.75;1.65;;;18.80;57.70;;;;;;5050482;28;20103;-52
2024/03/13 08:57:58;;;;;;;1.77;1.58;;;18.80;57.70;;;;;;5045703;28;20040;-50
2024/03/13 09:00:24;;;;;;;2.13;1.75;;;18.80;57.70;;;;;;5041057;28;20025;-50
2024/03/13 09:02:56;;;;;;;2.00;1.80;;;18.90;57.80;;;;;;5027645;28;20450;-48
2024/03/13 09:05:22;;;;;;;2.47;2.28;;;18.80;57.80;;;;;;5027148;28;20021;-50
2024/03/13 09:07:47;;;;;;;3.33;1.60;;;18.80;57.80;;;;;;5045538;28;20047;-52
2024/03/13 09:10:15;;;;;;;2.85;2.13;;;18.80;58.00;;;;;;5044337;28;20033;-51
2024/03/13 09:12:40;;;;;;;2.72;1.60;;;18.80;57.90;;;;;;5045851;28;20085;-50
2024/03/13 09:15:06;;;;;;;1.95;1.55;;;18.80;57.90;;;;;;5042900;28;20029;-50
2024/03/13 09:17:32;;;;;;;1.88;1.65;;;18.80;57.90;;;;;;5050111;28;20387;-49
2024/03/13 09:19:57;;;;;;;1.90;1.70;;;18.80;57.80;;;;;;5050842;28;20123;-50
2024/03/13 09:22:23;;;;;;;2.15;1.88;;;18.80;57.70;;;;;;5048787;28;20592;-52
2024/03/13 09:24:48;;;;;;;1.88;1.75;;;18.90;57.60;;;;;;5046565;28;20028;-49
2024/03/13 09:27:14;;;;;;;1.88;1.55;;;19.00;57.40;;;;;;5046918;28;20058;-51
2024/03/13 09:29:39;;;;;;;2.03;1.67;;;19.10;57.20;;;;;;5018847;28;20117;-51
2024/03/13 09:32:05;;;;;;;2.97;1.75;;;19.20;56.90;;;;;;5042005;28;20029;-53
2024/03/13 09:34:31;;;;;;;1.92;1.50;;;19.30;56.60;;;;;;5045272;28;20124;-51
2024/03/13 09:36:59;;;;;;;1.70;1.50;;;19.50;56.40;;;;;;5044587;28;20045;-51
2024/03/13 09:39:25;;;;;;;1.42;1.27;;;19.60;56.20;;;;;;5046997;28;20028;-50
2024/03/13 09:41:53;;;;;;;1.33;1.15;;;19.70;55.90;;;;;;5033348;28;20036;-48
2024/03/13 09:44:19;;;;;;;2.17;1.80;;;19.80;55.60;;;;;;5045021;28;20033;-51
2024/03/13 09:46:46;;;;;;;1.90;1.45;;;19.90;55.40;;;;;;5042787;28;20328;-49
2024/03/13 09:49:13;;;;;;;1.60;1.50;;;20.00;55.30;;;;;;5043641;28;20037;-54
2024/03/13 09:51:39;;;;;;;2.13;1.60;;;20.10;55.10;;;;;;5046701;28;20266;-54
2024/03/13 09:54:07;;;;;;;2.25;1.60;;;20.20;55.00;;;;;;5029720;28;20037;-51
2024/03/13 09:56:34;;;;;;;1.80;1.70;;;20.20;54.80;;;;;;5048455;28;20493;-52
2024/03/13 09:59:01;;;;;;;2.05;1.55;;;20.30;54.80;;;;;;5035493;28;20041;-53
2024/03/13 10:01:27;;;;;;;3.28;1.40;;;20.40;54.70;;;;;;5046552;28;20813;-52
2024/03/13 10:04:02;;;;;;;2.05;1.77;;;20.40;54.70;;;;;;5050522;28;20032;-50
2024/03/13 10:06:32;;;;;;;1.90;1.70;;;20.40;54.70;;;;;;5048580;28;20037;-49
2024/03/13 10:08:59;;;;;;;2.33;1.40;;;20.40;54.80;;;;;;5045390;28;20036;-52
2024/03/13 10:11:25;;;;;;;1.83;1.63;;;20.40;54.80;;;;;;5047481;28;20031;-55
2024/03/13 10:13:54;;;;;;;1.63;1.48;;;20.30;54.80;;;;;;5055062;28;20036;-50
2024/03/13 10:16:24;;;;;;;3.08;1.73;;;20.30;55.50;;;;;;5048533;28;20033;-49
2024/03/13 10:18:52;;;;;;;1.92;1.48;;;20.30;55.10;;;;;;5040761;28;20033;-52
2024/03/13 10:21:26;;;;;;;1.50;1.40;;;20.20;55.10;;;;;;5050121;28;20025;-51
2024/03/13 10:23:56;;;;;;;2.65;1.60;;;20.20;55.30;;;;;;5023802;28;20697;-49
2024/03/13 10:26:23;;;;;;;1.70;1.60;;;20.10;55.40;;;;;;5020839;28;20126;-50
2024/03/13 10:28:49;;;;;;;2.20;1.75;;;20.10;55.50;;;;;;5053364;28;20029;-49
2024/03/13 10:31:15;;;;;;;1.98;1.60;;;20.00;55.60;;;;;;5056209;28;20037;-51
2024/03/13 10:33:41;;;;;;;2.38;1.63;;;20.00;55.60;;;;;;5049988;28;20031;-52
2024/03/13 10:36:07;;;;;;;2.30;1.88;;;19.90;55.80;;;;;;5024447;22;20540;-48
2024/03/13 10:38:35;;;;;;;2.13;1.70;;;19.80;55.80;;;;;;5012754;28;20112;-51
2024/03/13 10:41:04;;;;;;;1.58;1.40;;;19.80;55.90;;;;;;5028815;28;20053;-50
2024/03/13 10:43:31;;;;;;;3.70;1.80;;;19.80;56.00;;;;;;5033224;28;20049;-52
2024/03/13 10:45:57;;;;;;;1.77;1.48;;;19.70;56.20;;;;;;5003763;28;20641;-54
2024/03/13 10:48:24;;;;;;;1.80;1.52;;;19.70;56.20;;;;;;5028485;28;20026;-54
2024/03/13 10:50:49;;;;;;;1.58;1.48;;;19.70;56.30;;;;;;5033137;28;20025;-52
2024/03/13 10:53:15;;;;;;;2.88;1.75;;;19.60;56.40;;;;;;5028977;28;20048;-53
2024/03/13 10:55:42;;;;;;;2.05;1.85;;;19.60;56.40;;;;;;5029804;28;20573;-53
2024/03/13 10:58:22;;;;;;;2.10;1.70;;;19.60;56.50;;;;;;5029521;28;20048;-55
2024/03/13 11:00:50;;;;;;;1.50;1.40;;;19.50;56.60;;;;;;5028462;28;20128;-51
2024/03/13 11:03:16;;;;;;;2.15;1.77;;;19.50;56.70;;;;;;5026254;28;20614;-49
2024/03/13 11:05:42;;;;;;;1.58;1.42;;;19.50;56.80;;;;;;5032637;28;20037;-49
2024/03/13 11:08:09;;;;;;;1.52;1.40;;;19.50;56.90;;;;;;5028788;28;20054;-52
2024/03/13 11:10:35;;;;;;;2.40;1.95;;;19.40;56.90;;;;;;5030873;28;20095;-56
2024/03/13 11:13:04;;;;;;;1.85;1.67;;;19.40;57.00;;;;;;5032519;28;20498;-53
2024/03/13 11:15:43;;;;;;;2.03;1.58;;;19.40;57.00;;;;;;5015693;28;20033;-52
2024/03/13 11:18:10;;;;;;;2.25;1.63;;;19.40;57.00;;;;;;5029566;28;20036;-49
2024/03/13 11:20:45;;;;;;;3.38;1.88;;;19.40;57.10;;;;;;5032224;28;20044;-52
2024/03/13 11:23:23;;;;;;;1.67;1.45;;;19.30;57.10;;;;;;5030019;28;20058;-55
2024/03/13 11:25:50;;;;;;;1.77;1.67;;;19.30;57.10;;;;;;5016131;28;20047;-50
2024/03/13 11:28:27;;;;;;;1.73;1.48;;;19.30;57.20;;;;;;5025491;28;20042;-51
2024/03/13 11:30:54;;;;;;;2.17;1.73;;;19.30;57.20;;;;;;5029335;28;20044;-56
2024/03/13 11:33:22;;;;;;;1.65;1.55;;;19.30;57.20;;;;;;5030859;28;20034;-50
2024/03/13 11:35:48;;;;;;;3.70;2.10;;;19.30;57.20;;;;;;5012449;28;20041;-51
2024/03/13 11:38:15;;;;;;;3.50;2.08;;;19.30;57.20;;;;;;5030393;28;20025;-56
2024/03/13 11:40:41;;;;;;;12.25;7.07;;;19.20;57.20;;;;;;5000884;28;20633;-51
2024/03/13 11:43:09;;;;;;;8.73;6.25;;;19.20;57.30;;;;;;5030974;28;20078;-50
2024/03/13 11:45:44;;;;;;;15.50;10.43;;;19.20;57.30;;;;;;5031630;28;20025;-49
2024/03/13 11:48:15;;;;;;;17.63;10.55;;;19.20;57.30;;;;;;5032975;28;20029;-56
2024/03/13 11:50:59;;;;;;;25.80;13.98;;;19.20;57.40;;;;;;5032557;28;20017;-48
2024/03/13 11:53:25;;;;;;;26.08;17.10;;;19.20;57.50;;;;;;5030472;28;20029;-49
2024/03/13 11:55:52;;;;;;;34.65;20.55;;;19.20;57.50;;;;;;5025709;28;20509;-50
2024/03/13 11:58:20;;;;;;;29.20;17.75;;;19.10;57.40;;;;;;5029015;28;20109;-53
2024/03/13 12:00:46;;;;;;;34.03;21.23;;;19.10;57.50;;;;;;5011649;28;20300;-50
2024/03/13 12:03:15;;;;;;;33.17;19.85;;;19.10;57.50;;;;;;5026219;28;20422;-54
2024/03/13 12:05:41;;;;;;;24.73;17.25;;;19.10;57.60;;;;;;5023962;28;20025;-53
2024/03/13 12:08:13;;;;;;;30.55;18.52;;;19.10;57.60;;;;;;5032366;28;20355;-52
2024/03/13 12:10:39;;;;;;;34.40;20.35;;;19.00;57.60;;;;;;5023054;28;20017;-50
2024/03/13 12:13:05;;;;;;;43.08;22.17;;;19.00;57.70;;;;;;5028630;28;20547;-51
2024/03/13 12:15:31;;;;;;;34.55;21.23;;;19.00;57.70;;;;;;5030342;28;20087;-49
2024/03/13 12:17:57;;;;;;;31.80;22.15;;;19.00;57.70;;;;;;5018506;28;20036;-49
2024/03/13 12:20:24;;;;;;;37.30;23.00;;;19.00;57.70;;;;;;5026781;28;20025;-51
2024/03/13 12:22:50;;;;;;;38.00;22.77;;;19.00;57.80;;;;;;5029591;28;20039;-51
2024/03/13 12:25:17;;;;;;;37.20;22.73;;;19.00;57.80;;;;;;5029633;28;20025;-49
2024/03/13 12:27:44;;;;;;;37.58;25.73;;;19.00;57.80;;;;;;5027341;28;20108;-49
2024/03/13 12:30:10;;;;;;;39.55;24.27;;;19.00;57.90;;;;;;5026126;28;20039;-51
2024/03/13 12:32:35;;;;;;;42.13;26.23;;;19.00;57.90;;;;;;5033333;28;20119;-50
2024/03/13 12:35:01;;;;;;;38.70;25.00;;;19.00;57.90;;;;;;5031178;28;20040;-50
2024/03/13 12:37:27;;;;;;;41.17;27.23;;;18.90;57.90;;;;;;5030597;28;20029;-47
2024/03/13 12:39:53;;;;;;;46.47;28.67;;;18.90;57.90;;;;;;5032728;28;20120;-47
2024/03/13 12:42:18;;;;;;;41.15;27.73;;;18.90;57.90;;;;;;5030210;28;20041;-48
2024/03/13 12:44:45;;;;;;;42.55;28.30;;;18.90;58.00;;;;;;5028363;28;20389;-48
2024/03/13 12:47:12;;;;;;;40.15;27.98;;;18.90;58.00;;;;;;5029408;28;20033;-53
2024/03/13 12:49:41;;;;;;;40.55;27.08;;;18.90;58.00;;;;;;5020047;28;20044;-48
2024/03/13 12:52:08;;;;;;;41.55;26.85;;;18.90;58.00;;;;;;5032389;28;20053;-55
2024/03/13 12:54:35;;;;;;;42.92;26.33;;;18.90;58.00;;;;;;5032834;28;20091;-50
2024/03/13 12:57:04;;;;;;;41.67;27.73;;;18.90;58.00;;;;;;5030607;28;20056;-49
2024/03/13 12:59:30;;;;;;;41.05;27.48;;;18.90;58.00;;;;;;5028243;28;20545;-53
2024/03/13 13:01:57;;;;;;;40.45;26.52;;;18.90;58.10;;;;;;5030666;28;20128;-54